Time;durP1;ratioP1;P1;durP2;ratioP2;P2;SDS_P1;SDS_P2;PMS_P1;PMS_P2;Temp;Humidity;BMP_temperature;BMP_pressure;BME280_temperature;BME280_humidity;BME280_pressure;Samples;Min_cycle;Max_cycle;Signal;HPM_P1;HPM_P2
2022/07/05 00:00:45;;;;;;;8.68;4.07;;;14.30;99.90;;;;;;5036931;28;20037;-59
2022/07/05 00:03:11;;;;;;;8.95;4.22;;;14.30;99.90;;;;;;5038452;28;20037;-58
2022/07/05 00:05:37;;;;;;;7.78;4.28;;;14.20;99.90;;;;;;5035580;28;20137;-58
2022/07/05 00:08:04;;;;;;;7.22;4.03;;;14.20;99.90;;;;;;5037681;28;20041;-59
2022/07/05 00:10:30;;;;;;;11.10;4.13;;;14.20;99.90;;;;;;5037157;28;20056;-58
2022/07/05 00:12:56;;;;;;;8.98;4.60;;;14.20;99.90;;;;;;5039001;28;20041;-59
2022/07/05 00:15:22;;;;;;;9.15;4.40;;;14.10;99.90;;;;;;5041923;28;20049;-58
2022/07/05 00:17:48;;;;;;;7.20;4.53;;;14.20;99.90;;;;;;5039790;28;20136;-58
2022/07/05 00:20:14;;;;;;;8.35;4.50;;;14.20;99.90;;;;;;5042092;28;20091;-58
2022/07/05 00:22:40;;;;;;;8.65;4.78;;;14.10;99.90;;;;;;5021068;28;20065;-58
2022/07/05 00:25:06;;;;;;;7.68;4.03;;;14.10;99.90;;;;;;5021810;28;20041;-57
2022/07/05 00:27:32;;;;;;;8.90;4.30;;;14.10;99.90;;;;;;5021035;28;20046;-58
2022/07/05 00:29:58;;;;;;;8.93;4.28;;;14.10;99.90;;;;;;5020789;28;20057;-58
2022/07/05 00:32:23;;;;;;;8.70;4.28;;;14.10;99.90;;;;;;5022190;28;20052;-59
2022/07/05 00:34:49;;;;;;;7.22;4.07;;;14.10;99.90;;;;;;5019718;28;20056;-59
2022/07/05 00:37:15;;;;;;;6.70;3.88;;;14.10;99.90;;;;;;5021854;28;20041;-58
2022/07/05 00:39:41;;;;;;;8.93;3.83;;;14.10;99.90;;;;;;5019828;28;20038;-59
2022/07/05 00:42:07;;;;;;;10.23;4.57;;;14.10;99.90;;;;;;5021707;28;20049;-59
2022/07/05 00:44:38;;;;;;;7.55;4.30;;;14.10;99.90;;;;;;5020576;28;20048;-58
2022/07/05 00:47:05;;;;;;;7.77;4.30;;;14.10;99.90;;;;;;5020754;28;20053;-59
2022/07/05 00:49:32;;;;;;;8.35;4.57;;;14.10;99.90;;;;;;5021845;28;20042;-58
2022/07/05 00:51:59;;;;;;;7.82;4.32;;;14.10;99.90;;;;;;5030421;28;20129;-59
2022/07/05 00:54:31;;;;;;;7.78;4.78;;;14.10;99.90;;;;;;5041842;28;20056;-59
2022/07/05 00:56:58;;;;;;;8.02;4.43;;;14.10;99.90;;;;;;5038333;28;20057;-58
2022/07/05 00:59:24;;;;;;;10.13;4.90;;;14.00;99.90;;;;;;5041024;28;20063;-59
2022/07/05 01:01:50;;;;;;;8.32;4.70;;;14.00;99.90;;;;;;5040679;28;20053;-59
2022/07/05 01:04:16;;;;;;;8.48;4.68;;;13.90;99.90;;;;;;5039514;28;20072;-58
2022/07/05 01:06:45;;;;;;;8.43;4.82;;;13.90;99.90;;;;;;5041301;28;20041;-58
2022/07/05 01:09:12;;;;;;;7.20;4.82;;;13.90;99.90;;;;;;5039326;28;20050;-59
2022/07/05 01:11:39;;;;;;;8.15;4.55;;;13.80;99.90;;;;;;5041527;28;20421;-58
2022/07/05 01:14:10;;;;;;;8.57;5.07;;;13.90;99.90;;;;;;5039013;28;20053;-58
2022/07/05 01:16:37;;;;;;;8.95;4.65;;;13.80;99.90;;;;;;5040354;28;20080;-57
2022/07/05 01:19:06;;;;;;;7.45;4.55;;;13.80;99.90;;;;;;5039125;28;20045;-57
2022/07/05 01:21:36;;;;;;;10.50;5.55;;;13.80;99.90;;;;;;5029486;28;20525;-58
2022/07/05 01:24:03;;;;;;;9.30;4.82;;;13.70;99.90;;;;;;5020642;28;20042;-59
2022/07/05 01:26:29;;;;;;;9.00;4.78;;;13.70;99.90;;;;;;5019123;28;20121;-58
2022/07/05 01:28:55;;;;;;;10.40;4.95;;;13.70;99.90;;;;;;5020975;28;20049;-58
2022/07/05 01:31:21;;;;;;;7.70;5.25;;;13.60;99.90;;;;;;5019057;28;20033;-58
2022/07/05 01:33:47;;;;;;;8.57;5.18;;;13.60;99.90;;;;;;5020598;28;20046;-58
2022/07/05 01:36:13;;;;;;;8.85;5.55;;;13.70;99.90;;;;;;5018914;28;20574;-58
2022/07/05 01:38:39;;;;;;;8.80;5.53;;;13.60;99.90;;;;;;5019264;28;20056;-58
2022/07/05 01:41:07;;;;;;;9.73;5.70;;;13.60;99.90;;;;;;5020783;28;20046;-57
2022/07/05 01:43:33;;;;;;;8.50;5.00;;;13.50;99.90;;;;;;5019015;28;20104;-56
2022/07/05 01:46:01;;;;;;;8.10;4.95;;;13.50;99.90;;;;;;5020622;28;20441;-58
2022/07/05 01:48:28;;;;;;;7.55;5.05;;;13.40;99.90;;;;;;5018988;28;20049;-58
2022/07/05 01:51:01;;;;;;;8.07;4.63;;;13.30;99.90;;;;;;5022229;28;20045;-58
2022/07/05 01:53:31;;;;;;;7.95;4.47;;;13.40;99.90;;;;;;5040091;28;20045;-58
2022/07/05 01:56:01;;;;;;;8.25;4.95;;;13.20;99.90;;;;;;5038477;28;20148;-59
2022/07/05 01:58:28;;;;;;;9.10;4.80;;;13.20;99.90;;;;;;5040408;28;20823;-59
2022/07/05 02:00:55;;;;;;;10.32;5.20;;;13.10;99.90;;;;;;5038516;28;20038;-58
2022/07/05 02:03:22;;;;;;;9.95;5.47;;;13.20;99.90;;;;;;5040232;28;20048;-58
2022/07/05 02:05:49;;;;;;;8.77;5.40;;;13.20;99.90;;;;;;5038956;28;20129;-58
2022/07/05 02:08:16;;;;;;;9.65;5.22;;;13.20;99.90;;;;;;5039143;28;20053;-59
2022/07/05 02:10:42;;;;;;;9.43;5.38;;;13.20;99.90;;;;;;5039718;28;20075;-57
2022/07/05 02:13:09;;;;;;;11.00;5.10;;;13.20;99.90;;;;;;5037917;28;20060;-58
2022/07/05 02:15:37;;;;;;;8.80;5.30;;;13.30;99.90;;;;;;5039524;28;20076;-58
2022/07/05 02:18:04;;;;;;;9.02;4.97;;;13.20;99.90;;;;;;5037767;28;20568;-58
2022/07/05 02:20:31;;;;;;;9.43;5.68;;;13.20;99.90;;;;;;5037331;28;20079;-59
2022/07/05 02:22:57;;;;;;;9.52;5.78;;;13.10;99.90;;;;;;5018865;28;20041;-58
2022/07/05 02:25:23;;;;;;;10.20;5.43;;;13.20;99.90;;;;;;5019282;28;20057;-58
2022/07/05 02:27:50;;;;;;;9.65;5.55;;;13.10;99.90;;;;;;5019638;28;20054;-57
2022/07/05 02:30:16;;;;;;;7.55;5.60;;;13.10;99.90;;;;;;5018421;28;20046;-58
2022/07/05 02:32:42;;;;;;;10.48;6.22;;;13.00;99.90;;;;;;5020166;28;20042;-57
2022/07/05 02:35:09;;;;;;;12.60;6.38;;;12.90;99.90;;;;;;5017968;28;20443;-57
2022/07/05 02:37:34;;;;;;;10.02;6.05;;;12.90;99.90;;;;;;5019705;28;20054;-58
2022/07/05 02:40:00;;;;;;;10.27;5.68;;;13.00;99.90;;;;;;5018202;28;20045;-58
2022/07/05 02:42:26;;;;;;;9.07;6.40;;;13.00;99.90;;;;;;5019145;28;20044;-58
2022/07/05 02:44:52;;;;;;;10.43;6.43;;;13.00;99.90;;;;;;5019490;28;20038;-58
2022/07/05 02:47:17;;;;;;;9.75;5.88;;;13.00;99.90;;;;;;5017973;28;20494;-58
2022/07/05 02:49:43;;;;;;;10.80;6.20;;;12.90;99.90;;;;;;5019606;28;20038;-58
2022/07/05 02:52:09;;;;;;;8.98;5.70;;;13.00;99.90;;;;;;5029726;28;20120;-58
2022/07/05 02:54:34;;;;;;;9.57;6.30;;;12.90;99.90;;;;;;5038908;28;20132;-59
2022/07/05 02:57:00;;;;;;;10.90;6.05;;;12.90;99.90;;;;;;5037661;28;20084;-59
2022/07/05 02:59:26;;;;;;;9.63;6.47;;;12.90;99.90;;;;;;5038566;28;20638;-58
2022/07/05 03:01:51;;;;;;;10.13;6.50;;;12.80;99.90;;;;;;5038371;28;20037;-58
2022/07/05 03:04:17;;;;;;;10.30;6.93;;;12.90;99.90;;;;;;5037713;28;20041;-59
2022/07/05 03:06:43;;;;;;;10.38;6.50;;;12.90;99.90;;;;;;5038774;28;20103;-59
2022/07/05 03:09:09;;;;;;;11.88;6.72;;;12.90;99.90;;;;;;5037156;28;20049;-60
2022/07/05 03:11:34;;;;;;;10.52;6.63;;;12.90;99.90;;;;;;5038813;28;20046;-59
2022/07/05 03:14:00;;;;;;;8.60;6.47;;;12.80;99.90;;;;;;5036839;28;20053;-59
2022/07/05 03:16:26;;;;;;;9.70;6.32;;;12.80;99.90;;;;;;5038115;28;20046;-58
2022/07/05 03:18:51;;;;;;;8.93;6.32;;;12.80;99.90;;;;;;5037976;28;20100;-59
2022/07/05 03:21:17;;;;;;;10.82;6.68;;;12.90;99.90;;;;;;5029836;28;20026;-59
2022/07/05 03:23:43;;;;;;;10.40;6.70;;;12.80;99.90;;;;;;5018711;28;20056;-58
2022/07/05 03:26:09;;;;;;;12.35;6.90;;;12.90;99.90;;;;;;5017217;28;20097;-59
2022/07/05 03:28:34;;;;;;;10.20;6.30;;;12.90;99.90;;;;;;5019042;28;20494;-58
2022/07/05 03:31:00;;;;;;;9.45;6.80;;;12.80;99.90;;;;;;5016948;28;20053;-58
2022/07/05 03:33:26;;;;;;;11.65;7.22;;;12.90;99.90;;;;;;5018628;28;20057;-58
2022/07/05 03:35:52;;;;;;;9.63;6.50;;;12.80;99.90;;;;;;5017834;28;20065;-58
2022/07/05 03:38:18;;;;;;;11.68;6.32;;;12.80;99.90;;;;;;5017517;28;20445;-58
2022/07/05 03:40:43;;;;;;;10.68;6.75;;;12.80;99.90;;;;;;5018777;28;20054;-58
2022/07/05 03:43:09;;;;;;;11.20;7.38;;;12.70;99.90;;;;;;5016904;28;20034;-58
2022/07/05 03:45:35;;;;;;;9.85;6.68;;;12.70;99.90;;;;;;5020892;28;20547;-58
2022/07/05 03:48:01;;;;;;;9.10;6.97;;;12.70;99.90;;;;;;5023471;28;20081;-59
2022/07/05 03:50:27;;;;;;;10.77;7.07;;;12.80;99.90;;;;;;5025386;28;20034;-59
2022/07/05 03:52:53;;;;;;;8.90;6.20;;;12.80;99.90;;;;;;5042102;28;20050;-59
2022/07/05 03:55:19;;;;;;;10.85;7.30;;;12.80;99.90;;;;;;5044225;28;20065;-58
2022/07/05 03:57:45;;;;;;;10.43;6.43;;;12.80;99.90;;;;;;5044942;28;20554;-58
2022/07/05 04:00:11;;;;;;;10.77;7.53;;;12.80;99.90;;;;;;5041825;28;20055;-59
2022/07/05 04:02:37;;;;;;;11.18;6.68;;;12.90;99.90;;;;;;5045328;28;20045;-59
2022/07/05 04:05:04;;;;;;;8.50;6.40;;;12.90;99.90;;;;;;5043117;28;20397;-59
2022/07/05 04:07:29;;;;;;;11.60;6.90;;;12.90;99.90;;;;;;5044957;28;20049;-59
2022/07/05 04:09:55;;;;;;;11.75;7.13;;;13.00;99.90;;;;;;5043675;28;20045;-59
2022/07/05 04:12:21;;;;;;;9.82;6.38;;;13.00;99.90;;;;;;5044070;28;20049;-58
2022/07/05 04:14:46;;;;;;;8.95;6.60;;;13.00;99.90;;;;;;5044517;28;20080;-58
2022/07/05 04:17:12;;;;;;;11.85;7.25;;;13.00;99.90;;;;;;5042907;28;20430;-58
2022/07/05 04:19:38;;;;;;;10.07;6.95;;;12.90;99.90;;;;;;5045216;28;20053;-59
2022/07/05 04:22:05;;;;;;;10.18;7.22;;;13.00;99.90;;;;;;5026974;28;20066;-59
2022/07/05 04:24:31;;;;;;;10.00;7.30;;;13.10;99.90;;;;;;5025000;28;20046;-59
2022/07/05 04:26:57;;;;;;;9.95;6.35;;;13.10;99.90;;;;;;5023375;28;20096;-59
2022/07/05 04:29:22;;;;;;;10.48;6.78;;;13.10;99.90;;;;;;5024343;28;20041;-59
2022/07/05 04:31:48;;;;;;;11.02;7.18;;;13.30;99.90;;;;;;5024387;28;20074;-58
2022/07/05 04:34:14;;;;;;;12.65;7.05;;;13.30;99.90;;;;;;5023221;28;20056;-58
2022/07/05 04:36:40;;;;;;;10.73;6.90;;;13.30;99.90;;;;;;5024838;28;20042;-58
2022/07/05 04:39:07;;;;;;;12.27;7.32;;;13.70;99.90;;;;;;5022872;28;20054;-59
2022/07/05 04:41:33;;;;;;;10.77;6.78;;;13.50;99.90;;;;;;5024816;28;20121;-59
2022/07/05 04:43:59;;;;;;;13.00;7.32;;;13.50;99.90;;;;;;5022614;28;20045;-59
2022/07/05 04:46:24;;;;;;;12.57;6.82;;;13.60;99.90;;;;;;5024579;28;20231;-59
2022/07/05 04:48:50;;;;;;;9.48;6.50;;;13.70;99.90;;;;;;5024139;28;20050;-59
2022/07/05 04:51:16;;;;;;;9.30;6.30;;;13.70;99.90;;;;;;5028264;28;20069;-60
2022/07/05 04:53:42;;;;;;;9.30;6.30;;;13.80;99.90;;;;;;5043172;28;20424;-59
2022/07/05 04:56:08;;;;;;;11.23;6.70;;;14.00;99.90;;;;;;5041367;28;20102;-59
2022/07/05 04:58:34;;;;;;;11.60;6.18;;;14.10;99.90;;;;;;5040283;28;20532;-59
2022/07/05 05:01:00;;;;;;;8.73;6.07;;;14.10;99.90;;;;;;5039210;28;20157;-59
2022/07/05 05:03:26;;;;;;;10.05;6.32;;;14.40;99.90;;;;;;5039654;28;20053;-59
2022/07/05 05:05:51;;;;;;;10.25;5.43;;;14.40;99.90;;;;;;5036448;28;20034;-59
2022/07/05 05:08:17;;;;;;;9.63;6.13;;;14.60;99.90;;;;;;5036303;28;20037;-59
2022/07/05 05:10:43;;;;;;;8.07;5.10;;;14.60;99.90;;;;;;5037444;28;20038;-59
2022/07/05 05:13:09;;;;;;;9.95;6.10;;;14.60;99.90;;;;;;5035556;28;20063;-59
2022/07/05 05:15:34;;;;;;;9.77;5.45;;;14.80;99.90;;;;;;5037023;28;20137;-59
2022/07/05 05:18:00;;;;;;;8.00;5.10;;;14.90;99.90;;;;;;5035362;28;20057;-59
2022/07/05 05:20:26;;;;;;;10.88;5.10;;;15.00;99.90;;;;;;5034933;28;20075;-59
2022/07/05 05:22:52;;;;;;;7.78;4.40;;;15.10;99.90;;;;;;5016277;28;20046;-59
2022/07/05 05:25:17;;;;;;;7.63;4.15;;;15.10;99.90;;;;;;5016391;28;20048;-59
2022/07/05 05:27:49;;;;;;;7.15;4.35;;;15.30;99.90;;;;;;5016588;28;20038;-59
2022/07/05 05:30:16;;;;;;;8.15;4.30;;;15.30;99.90;;;;;;5015664;28;20105;-59
2022/07/05 05:32:42;;;;;;;9.75;4.82;;;15.40;99.90;;;;;;5015879;28;20289;-60
2022/07/05 05:35:08;;;;;;;6.75;4.20;;;15.50;99.90;;;;;;5015181;28;20069;-59
2022/07/05 05:37:51;;;;;;;11.57;3.90;;;15.50;99.90;;;;;;5015546;28;20657;-59
2022/07/05 05:40:16;;;;;;;6.90;3.92;;;15.60;99.90;;;;;;5016156;28;20397;-59
2022/07/05 05:42:42;;;;;;;6.93;3.25;;;15.80;99.90;;;;;;5015962;28;20046;-59
2022/07/05 05:45:09;;;;;;;8.90;3.40;;;15.90;99.90;;;;;;5016808;28;20288;-59
2022/07/05 05:47:46;;;;;;;6.80;3.10;;;16.10;99.90;;;;;;5019050;28;20045;-59
2022/07/05 05:50:12;;;;;;;8.20;3.47;;;16.20;99.90;;;;;;5025819;28;20030;-59
2022/07/05 05:52:38;;;;;;;6.32;3.25;;;16.20;99.90;;;;;;5033321;28;20041;-59
2022/07/05 05:55:05;;;;;;;6.78;3.83;;;16.40;99.90;;;;;;5038559;28;20045;-59
2022/07/05 05:57:32;;;;;;;7.50;2.70;;;16.40;99.90;;;;;;5039075;28;20095;-59
2022/07/05 05:59:57;;;;;;;8.88;3.30;;;16.60;99.90;;;;;;5038366;28;20045;-58
2022/07/05 06:02:23;;;;;;;5.57;2.28;;;16.60;99.90;;;;;;5040367;28;20063;-58
2022/07/05 06:04:48;;;;;;;5.45;2.85;;;16.30;99.90;;;;;;5038207;28;20084;-58
2022/07/05 06:07:14;;;;;;;10.48;2.80;;;16.30;99.90;;;;;;5040442;28;20037;-58
2022/07/05 06:09:40;;;;;;;7.65;2.80;;;16.20;99.90;;;;;;5036691;28;20049;-59
2022/07/05 06:12:05;;;;;;;8.38;2.60;;;16.30;99.90;;;;;;5039782;28;20049;-58
2022/07/05 06:14:31;;;;;;;6.68;2.17;;;16.40;99.90;;;;;;5038838;28;20038;-58
2022/07/05 06:16:57;;;;;;;7.07;2.10;;;16.40;99.90;;;;;;5038576;28;20045;-59
2022/07/05 06:19:22;;;;;;;6.95;2.10;;;16.50;99.90;;;;;;5039771;28;20052;-58
2022/07/05 06:21:48;;;;;;;7.82;2.55;;;16.60;99.90;;;;;;5025806;28;20082;-58
2022/07/05 06:24:14;;;;;;;6.20;2.00;;;16.60;99.90;;;;;;5019970;28;20042;-58
2022/07/05 06:26:39;;;;;;;7.43;2.00;;;16.80;99.90;;;;;;5017783;28;20061;-59
2022/07/05 06:29:05;;;;;;;9.80;2.75;;;16.90;99.90;;;;;;5019913;28;20107;-58
2022/07/05 06:31:30;;;;;;;8.13;2.08;;;16.90;99.90;;;;;;5018676;28;20088;-58
2022/07/05 06:33:56;;;;;;;7.13;1.90;;;17.00;99.90;;;;;;5018958;28;20038;-59
2022/07/05 06:36:22;;;;;;;6.15;2.25;;;17.10;99.90;;;;;;5019431;28;20046;-58
2022/07/05 06:38:47;;;;;;;7.85;2.10;;;17.10;99.90;;;;;;5018114;28;20093;-59
2022/07/05 06:41:13;;;;;;;7.05;1.95;;;17.10;99.90;;;;;;5019615;28;20053;-58
2022/07/05 06:43:38;;;;;;;7.07;1.80;;;17.20;99.90;;;;;;5017643;28;20038;-58
2022/07/05 06:46:04;;;;;;;6.15;1.85;;;17.10;99.90;;;;;;5019621;28;20069;-59
2022/07/05 06:48:30;;;;;;;9.38;1.85;;;17.00;99.90;;;;;;5016768;28;20050;-58
2022/07/05 06:50:56;;;;;;;7.15;1.67;;;17.20;99.90;;;;;;5021117;28;20463;-58
2022/07/05 06:53:21;;;;;;;8.43;2.15;;;17.30;99.90;;;;;;5039215;28;20045;-58
2022/07/05 06:55:47;;;;;;;7.05;1.70;;;17.50;99.90;;;;;;5037709;28;20042;-59
2022/07/05 06:58:13;;;;;;;9.20;1.50;;;17.60;99.90;;;;;;5038964;28;20096;-59
2022/07/05 07:00:40;;;;;;;6.72;1.70;;;17.80;99.90;;;;;;5037358;28;20040;-58
2022/07/05 07:03:05;;;;;;;7.15;1.85;;;17.60;99.90;;;;;;5038950;28;20104;-58
2022/07/05 07:05:31;;;;;;;11.52;1.73;;;17.60;99.90;;;;;;5037871;28;20428;-58
2022/07/05 07:10:41;;;;;;;7.80;1.60;;;17.80;99.90;;;;;;5038833;28;20049;-58
2022/07/05 07:13:07;;;;;;;7.47;1.30;;;17.80;99.90;;;;;;5036866;28;20045;-58
2022/07/05 07:15:37;;;;;;;5.20;0.95;;;17.80;99.90;;;;;;5038541;28;20041;-58
2022/07/05 07:18:03;;;;;;;7.80;1.65;;;17.60;99.90;;;;;;5036753;28;20092;-58
2022/07/05 07:20:29;;;;;;;4.95;0.93;;;17.40;99.90;;;;;;5036492;28;20054;-58
2022/07/05 07:22:55;;;;;;;7.07;1.50;;;17.40;99.90;;;;;;5018129;28;20216;-58
2022/07/05 07:25:23;;;;;;;8.77;0.98;;;17.30;99.90;;;;;;5017674;28;20054;-59
2022/07/05 07:27:53;;;;;;;5.32;1.00;;;17.30;99.90;;;;;;5018840;28;20530;-59
2022/07/05 07:30:23;;;;;;;4.18;0.98;;;17.30;99.90;;;;;;5017149;28;20044;-59
2022/07/05 07:32:49;;;;;;;9.05;1.17;;;17.40;99.90;;;;;;5019088;28;20117;-59
2022/07/05 07:35:15;;;;;;;4.22;1.00;;;17.20;99.90;;;;;;5017299;28;20182;-58
2022/07/05 07:37:41;;;;;;;4.95;1.30;;;17.30;99.90;;;;;;5018508;28;20065;-59
2022/07/05 07:40:08;;;;;;;5.93;1.10;;;17.20;99.90;;;;;;5017709;28;20042;-59
2022/07/05 07:42:34;;;;;;;8.13;1.20;;;17.30;99.90;;;;;;5017154;28;20038;-58
2022/07/05 07:45:03;;;;;;;7.18;1.38;;;17.50;99.90;;;;;;5018508;28;20053;-58
2022/07/05 07:47:30;;;;;;;6.82;1.20;;;17.60;99.90;;;;;;5016941;28;20038;-58
2022/07/05 07:49:56;;;;;;;4.88;1.10;;;17.70;99.90;;;;;;5019035;28;20088;-58
2022/07/05 07:52:21;;;;;;;9.20;1.50;;;17.60;99.90;;;;;;5030985;28;20042;-59
2022/07/05 07:54:47;;;;;;;5.35;1.05;;;17.40;99.90;;;;;;5038069;28;20048;-60
2022/07/05 07:57:12;;;;;;;4.45;1.10;;;17.20;99.90;;;;;;5037633;28;20048;-58
2022/07/05 07:59:38;;;;;;;6.68;1.13;;;17.20;99.90;;;;;;5037714;28;20072;-59
2022/07/05 08:02:04;;;;;;;5.65;1.00;;;17.20;99.90;;;;;;5038412;28;20490;-58
2022/07/05 08:04:30;;;;;;;7.35;1.00;;;17.20;99.90;;;;;;5036592;28;20068;-58
2022/07/05 08:06:55;;;;;;;6.97;1.88;;;17.30;99.90;;;;;;5038808;28;20793;-58
2022/07/05 08:09:21;;;;;;;4.28;1.10;;;17.40;99.90;;;;;;5036613;28;20042;-58
2022/07/05 08:11:47;;;;;;;6.53;1.27;;;17.40;99.90;;;;;;5038192;28;20533;-59
2022/07/05 08:14:15;;;;;;;3.20;0.85;;;17.40;99.90;;;;;;5037106;28;20068;-59
2022/07/05 08:16:41;;;;;;;5.53;0.88;;;17.50;99.90;;;;;;5037204;28;20057;-59
2022/07/05 08:21:51;;;;;;;6.72;1.10;;;17.60;99.90;;;;;;5023634;28;20053;-58
2022/07/05 08:24:17;;;;;;;6.60;0.90;;;17.60;99.90;;;;;;5018904;28;20042;-58
2022/07/05 08:26:43;;;;;;;6.60;1.20;;;17.80;99.90;;;;;;5016719;28;20124;-58
2022/07/05 08:29:10;;;;;;;3.53;0.88;;;17.80;99.90;;;;;;5018119;28;20050;-59
2022/07/05 08:31:43;;;;;;;4.10;1.02;;;18.30;99.90;;;;;;5017103;28;20072;-59
2022/07/05 08:34:08;;;;;;;7.32;1.00;;;18.40;99.90;;;;;;5020139;28;20482;-59
2022/07/05 08:36:34;;;;;;;5.68;1.10;;;18.50;99.90;;;;;;5022209;28;20046;-58
2022/07/05 08:39:00;;;;;;;4.82;1.10;;;18.50;99.90;;;;;;5019563;28;20077;-58
2022/07/05 08:41:26;;;;;;;6.65;1.20;;;18.20;99.90;;;;;;5021777;28;20069;-58
2022/07/05 08:43:52;;;;;;;6.35;1.13;;;18.40;99.90;;;;;;5019496;28;20045;-57
2022/07/05 08:46:19;;;;;;;6.20;1.25;;;18.20;99.90;;;;;;5021412;28;20583;-59
2022/07/05 08:48:48;;;;;;;4.30;1.08;;;18.10;99.90;;;;;;5020501;28;20101;-59
2022/07/05 08:51:17;;;;;;;4.72;0.95;;;18.00;99.90;;;;;;5024604;28;20132;-59
2022/07/05 08:53:44;;;;;;;7.38;1.08;;;17.80;99.90;;;;;;5041098;28;20037;-58
2022/07/05 08:56:12;;;;;;;4.78;0.88;;;17.80;99.90;;;;;;5039125;28;20046;-59
2022/07/05 08:58:38;;;;;;;4.35;0.90;;;17.80;99.90;;;;;;5041162;28;20037;-60
2022/07/05 09:01:05;;;;;;;4.85;1.20;;;17.90;99.90;;;;;;5039111;28;20041;-58
2022/07/05 09:03:48;;;;;;;5.28;1.00;;;18.30;99.90;;;;;;5040680;28;20114;-59
2022/07/05 09:06:17;;;;;;;6.05;1.30;;;18.30;99.90;;;;;;5040973;28;20081;-59
2022/07/05 09:08:44;;;;;;;5.28;1.00;;;18.10;99.90;;;;;;5038868;28;20113;-59
2022/07/05 09:11:13;;;;;;;7.80;1.30;;;18.20;99.90;;;;;;5040898;28;20041;-59
2022/07/05 09:13:41;;;;;;;3.10;0.98;;;18.20;99.90;;;;;;5038434;28;20050;-59
2022/07/05 09:16:07;;;;;;;7.13;1.30;;;18.10;99.90;;;;;;5040891;28;20051;-60
2022/07/05 09:18:39;;;;;;;8.45;1.52;;;18.10;99.90;;;;;;5039720;28;20511;-59
2022/07/05 09:21:16;;;;;;;4.82;1.30;;;17.90;99.90;;;;;;5033358;28;20084;-59
2022/07/05 09:23:42;;;;;;;4.93;0.93;;;18.30;99.90;;;;;;5021275;28;20073;-59
2022/07/05 09:26:08;;;;;;;5.93;1.00;;;18.50;99.90;;;;;;5019175;28;20050;-59
2022/07/05 09:28:34;;;;;;;5.50;1.10;;;18.80;99.90;;;;;;5021098;28;20049;-59
2022/07/05 09:30:59;;;;;;;5.47;1.30;;;18.60;99.90;;;;;;5019295;28;20133;-59
2022/07/05 09:33:25;;;;;;;5.45;1.23;;;18.30;99.90;;;;;;5020982;28;20042;-59
2022/07/05 09:35:57;;;;;;;5.07;0.98;;;18.10;99.90;;;;;;5020427;28;20042;-58
2022/07/05 09:38:25;;;;;;;4.88;0.90;;;18.20;99.90;;;;;;5019502;28;20073;-59
2022/07/05 09:40:58;;;;;;;5.95;1.52;;;18.10;99.90;;;;;;5020565;28;20137;-58
2022/07/05 09:43:28;;;;;;;5.53;0.90;;;17.90;99.90;;;;;;5017990;28;20085;-59
2022/07/05 09:46:04;;;;;;;7.40;1.25;;;17.80;99.90;;;;;;5020574;28;20046;-60
2022/07/05 09:48:32;;;;;;;7.38;1.27;;;18.00;99.90;;;;;;5019785;28;20049;-58
2022/07/05 09:51:10;;;;;;;5.70;0.90;;;18.10;99.90;;;;;;5022393;28;20034;-59
2022/07/05 09:53:50;;;;;;;5.40;1.15;;;18.20;99.90;;;;;;5040592;28;20494;-58
2022/07/05 09:56:17;;;;;;;5.18;1.10;;;18.40;99.90;;;;;;5038599;28;20057;-59
2022/07/05 09:58:43;;;;;;;4.65;1.05;;;18.40;99.90;;;;;;5040608;28;20052;-59
2022/07/05 10:01:30;;;;;;;5.95;1.17;;;18.40;99.90;;;;;;5038517;28;20071;-59
2022/07/05 10:03:57;;;;;;;5.07;1.00;;;18.10;99.90;;;;;;5039342;28;20073;-59
2022/07/05 10:06:24;;;;;;;4.63;0.98;;;18.10;99.90;;;;;;5040195;28;20073;-60
2022/07/05 10:08:52;;;;;;;6.97;1.48;;;17.90;99.90;;;;;;5038585;28;20045;-59
2022/07/05 10:11:19;;;;;;;6.88;1.58;;;17.80;99.90;;;;;;5039982;28;20683;-59
2022/07/05 10:13:51;;;;;;;5.57;1.27;;;17.80;99.90;;;;;;5038199;28;20056;-59
2022/07/05 10:16:18;;;;;;;4.45;1.00;;;18.00;99.90;;;;;;5039215;28;20125;-59
2022/07/05 10:18:46;;;;;;;12.18;2.47;;;18.40;99.90;;;;;;5038592;28;20061;-59
2022/07/05 10:21:17;;;;;;;4.53;1.08;;;18.70;99.90;;;;;;5031216;28;20038;-59
2022/07/05 10:23:44;;;;;;;5.97;1.52;;;18.60;99.90;;;;;;5018556;28;20054;-60
2022/07/05 10:26:12;;;;;;;5.88;1.17;;;18.50;99.90;;;;;;5017010;28;20100;-59
2022/07/05 10:28:40;;;;;;;9.07;1.33;;;18.30;99.90;;;;;;5020001;28;20052;-59
2022/07/05 10:31:09;;;;;;;5.45;1.60;;;18.40;99.90;;;;;;5018535;28;20125;-59
2022/07/05 10:33:35;;;;;;;2.92;0.90;;;18.80;99.90;;;;;;5019536;28;20054;-59
2022/07/05 10:36:01;;;;;;;4.07;1.00;;;18.60;99.90;;;;;;5019598;28;20046;-59
2022/07/05 10:38:27;;;;;;;5.80;1.30;;;18.60;99.90;;;;;;5018269;28;20050;-59
2022/07/05 10:40:57;;;;;;;9.32;1.48;;;18.60;99.90;;;;;;5019724;28;20048;-59
2022/07/05 10:43:24;;;;;;;5.75;1.35;;;18.80;99.90;;;;;;5017756;28;20042;-59
2022/07/05 10:45:52;;;;;;;6.03;1.13;;;18.60;99.90;;;;;;5019468;28;20110;-59
2022/07/05 10:48:23;;;;;;;4.78;1.27;;;18.60;99.90;;;;;;5017107;28;20074;-59
2022/07/05 10:50:52;;;;;;;4.35;1.00;;;18.50;99.90;;;;;;5020050;28;20129;-59
2022/07/05 10:53:20;;;;;;;5.90;1.15;;;18.20;99.90;;;;;;5038977;28;20105;-59
2022/07/05 10:55:59;;;;;;;3.15;0.90;;;18.30;99.90;;;;;;5036443;28;20124;-59
2022/07/05 10:58:30;;;;;;;3.53;0.98;;;18.20;99.90;;;;;;5038315;28;20049;-59
2022/07/05 11:01:17;;;;;;;5.88;1.23;;;18.20;99.90;;;;;;5037088;28;20179;-60
2022/07/05 11:04:02;;;;;;;4.30;0.93;;;18.20;99.90;;;;;;5037974;28;20045;-60
2022/07/05 11:06:46;;;;;;;5.20;0.85;;;18.60;99.90;;;;;;5039092;28;20041;-60
2022/07/05 11:09:11;;;;;;;4.68;1.05;;;18.70;99.90;;;;;;5037508;28;20049;-59
2022/07/05 11:11:42;;;;;;;5.43;1.63;;;18.60;99.90;;;;;;5039098;28;20131;-60
2022/07/05 11:14:20;;;;;;;5.63;1.00;;;18.60;99.90;;;;;;5037796;28;20069;-59
2022/07/05 11:16:47;;;;;;;7.45;1.17;;;18.90;99.90;;;;;;5037336;28;20052;-59
2022/07/05 11:19:17;;;;;;;3.28;0.88;;;19.00;99.90;;;;;;5038911;28;20088;-59
2022/07/05 11:22:05;;;;;;;2.60;0.60;;;18.80;99.90;;;;;;5025797;28;20076;-60
2022/07/05 11:24:36;;;;;;;5.35;1.13;;;18.60;99.90;;;;;;5019079;28;20084;-59
2022/07/05 11:27:04;;;;;;;2.38;0.80;;;18.50;99.90;;;;;;5016723;28;20092;-59
2022/07/05 11:29:46;;;;;;;5.18;1.00;;;18.40;99.90;;;;;;5018145;28;20057;-59
2022/07/05 11:32:15;;;;;;;2.97;0.80;;;18.40;99.90;;;;;;5019160;28;20050;-59
2022/07/05 11:34:46;;;;;;;4.80;1.20;;;18.30;99.90;;;;;;5016919;28;20084;-60
2022/07/05 11:37:32;;;;;;;6.17;1.37;;;18.00;99.90;;;;;;5018914;28;20069;-59
2022/07/05 11:40:09;;;;;;;8.05;1.30;;;18.00;99.90;;;;;;5017625;28;20050;-59
2022/07/05 11:42:37;;;;;;;6.57;1.30;;;18.00;99.90;;;;;;5017134;28;20121;-59
2022/07/05 11:45:07;;;;;;;5.72;1.38;;;17.80;99.90;;;;;;5018672;28;20104;-59
2022/07/05 11:47:34;;;;;;;7.97;1.58;;;17.90;99.90;;;;;;5016496;28;20042;-59
2022/07/05 11:49:59;;;;;;;7.63;1.63;;;17.70;99.90;;;;;;5018185;28;20034;-59
2022/07/05 11:52:32;;;;;;;7.20;1.40;;;17.50;99.90;;;;;;5031189;28;20056;-59
2022/07/05 11:55:00;;;;;;;9.10;1.50;;;17.30;99.90;;;;;;5035573;28;20030;-60
2022/07/05 11:57:26;;;;;;;6.32;1.20;;;17.20;99.90;;;;;;5036262;28;20494;-59
2022/07/05 11:59:51;;;;;;;6.05;1.48;;;17.10;99.90;;;;;;5035163;28;20034;-58
2022/07/05 12:02:18;;;;;;;5.65;1.42;;;17.10;99.90;;;;;;5037318;28;20040;-56
2022/07/05 12:04:48;;;;;;;4.22;1.17;;;17.10;99.90;;;;;;5035621;28;20041;-59
2022/07/05 12:07:28;;;;;;;7.35;1.50;;;17.00;99.90;;;;;;5039311;28;20045;-60
2022/07/05 12:12:43;;;;;;;5.25;1.00;;;17.20;99.90;;;;;;5040305;28;20052;-59
2022/07/05 12:15:14;;;;;;;6.20;2.00;;;17.40;99.90;;;;;;5042025;28;20053;-59
2022/07/05 12:17:41;;;;;;;10.32;1.60;;;18.00;99.90;;;;;;5040108;28;20490;-59
2022/07/05 12:20:11;;;;;;;6.63;1.30;;;17.90;99.90;;;;;;5042187;28;20069;-59
2022/07/05 12:22:41;;;;;;;7.78;1.38;;;17.90;99.90;;;;;;5035257;28;20029;-59
2022/07/05 12:25:13;;;;;;;5.35;1.35;;;18.00;99.90;;;;;;5031964;28;20076;-60
2022/07/05 12:27:41;;;;;;;5.70;1.17;;;18.10;99.90;;;;;;5025390;28;20033;-59
2022/07/05 12:30:09;;;;;;;4.85;1.02;;;18.30;99.90;;;;;;5030985;28;20030;-59
2022/07/05 12:33:05;;;;;;;3.97;0.90;;;18.30;99.90;;;;;;5028351;28;20042;-59
2022/07/05 12:35:41;;;;;;;6.53;1.35;;;18.30;99.90;;;;;;5040285;28;20042;-59
2022/07/05 12:38:18;;;;;;;3.42;1.05;;;18.10;99.90;;;;;;5040255;28;20086;-59
2022/07/05 12:40:49;;;;;;;6.13;1.05;;;17.90;99.90;;;;;;5040533;28;20064;-60
2022/07/05 12:43:18;;;;;;;3.85;1.00;;;17.80;99.90;;;;;;5039586;28;20045;-56
2022/07/05 12:46:03;;;;;;;3.97;1.08;;;17.90;99.90;;;;;;5041307;28;20053;-59
2022/07/05 12:48:32;;;;;;;5.75;1.15;;;17.70;99.90;;;;;;5040295;28;20046;-58
2022/07/05 12:50:58;;;;;;;4.00;1.10;;;17.70;99.90;;;;;;5036975;28;20119;-62
2022/07/05 12:59:03;;;;;;;5.90;1.10;;;17.80;99.90;;;;;;5040520;28;20053;-59
2022/07/05 13:01:31;;;;;;;5.28;1.02;;;17.80;99.90;;;;;;5040175;28;20053;-59